BAW185 EGLL-KEWR
Flight info
| Callsign | BAW185 |
|---|---|
| Flight time | N/A |
| Altitude | 38000 |
| Route | CPT3G CPT L9 BUCGO DCT FELCA DCT OFSOX DCT BANBA DCT DINIM/M082F390 NATF ALLRY/N0484F400 N468A TUSKY Q475 COPLY DCT BOS DCT NELIE FLOSI4 |
| Aircraft | B772/H-SDE2E3FGHIJ5LORVWXY/LB1D1 |
Departure
| Time | 2026-05-04 09:01 |
|---|---|
| Airport | London Heathrow Airport (EGLL) |
Arrival
| Time | N/A |
|---|---|
| Airport | Newark Liberty International Airport (KEWR) |
| Time | Latitude | Longitude | Altitude | Speed | Heading |
|---|---|---|---|---|---|
| 2026-05-04 08:31 | 51.47053 | -0.48023 | 90 ft | 0 kts | 270° |
| 2026-05-04 08:43 | 51.47053 | -0.47986 | 92 ft | 4 kts | 270° |
| 2026-05-04 08:43 | 51.47053 | -0.47943 | 90 ft | 4 kts | 270° |
| 2026-05-04 08:43 | 51.47054 | -0.47901 | 90 ft | 4 kts | 251° |
| 2026-05-04 08:44 | 51.47068 | -0.47873 | 92 ft | 4 kts | 194° |
| 2026-05-04 08:44 | 51.47088 | -0.47870 | 91 ft | 4 kts | 180° |
| 2026-05-04 08:46 | 51.47108 | -0.47870 | 90 ft | 0 kts | 180° |
| 2026-05-04 08:48 | 51.47079 | -0.47870 | 91 ft | 7 kts | 180° |
| 2026-05-04 08:48 | 51.47030 | -0.47869 | 90 ft | 7 kts | 180° |
| 2026-05-04 08:48 | 51.46982 | -0.47869 | 90 ft | 7 kts | 180° |
| 2026-05-04 08:49 | 51.46932 | -0.47869 | 90 ft | 7 kts | 180° |
| 2026-05-04 08:50 | 51.46749 | -0.47248 | 94 ft | 14 kts | 89° |
| 2026-05-04 08:50 | 51.46750 | -0.47088 | 90 ft | 14 kts | 92° |
| 2026-05-04 08:51 | 51.46747 | -0.46928 | 94 ft | 14 kts | 91° |
| 2026-05-04 08:51 | 51.46746 | -0.46770 | 94 ft | 14 kts | 90° |
| 2026-05-04 08:51 | 51.46749 | -0.46610 | 94 ft | 14 kts | 88° |
| 2026-05-04 08:51 | 51.46750 | -0.46451 | 90 ft | 14 kts | 92° |
| 2026-05-04 08:52 | 51.46748 | -0.46291 | 94 ft | 14 kts | 90° |
| 2026-05-04 08:52 | 51.46748 | -0.46134 | 94 ft | 14 kts | 89° |
| 2026-05-04 08:52 | 51.46750 | -0.45974 | 90 ft | 14 kts | 89° |
| 2026-05-04 08:52 | 51.46752 | -0.45815 | 90 ft | 14 kts | 89° |
| 2026-05-04 08:53 | 51.46749 | -0.45655 | 90 ft | 14 kts | 92° |
| 2026-05-04 08:54 | 51.46754 | -0.44539 | 93 ft | 14 kts | 89° |
| 2026-05-04 08:55 | 51.46755 | -0.44379 | 93 ft | 14 kts | 89° |
| 2026-05-04 08:55 | 51.46756 | -0.44220 | 93 ft | 14 kts | 90° |
| 2026-05-04 08:55 | 51.46763 | -0.44061 | 94 ft | 14 kts | 80° |
| 2026-05-04 08:55 | 51.46771 | -0.43903 | 93 ft | 14 kts | 95° |
| 2026-05-04 08:57 | 51.46491 | -0.44456 | 92 ft | 64 kts | 270° |
| 2026-05-04 09:01 | 51.45347 | -0.79796 | 6851 ft | 323 kts | 268° |
| 2026-05-04 09:01 | 51.45321 | -0.83371 | 7527 ft | 328 kts | 268° |
| 2026-05-04 09:01 | 51.45287 | -0.87027 | 8332 ft | 329 kts | 268° |
| 2026-05-04 09:01 | 51.45445 | -0.90694 | 8982 ft | 333 kts | 278° |
| 2026-05-04 09:02 | 51.45908 | -0.94369 | 9675 ft | 339 kts | 281° |
| 2026-05-04 09:02 | 51.46401 | -0.98096 | 10333 ft | 345 kts | 279° |